createdAt,value
2019-04-04T00:02:06.845Z,30.56
2019-04-04T00:05:10.466Z,30.69
2019-04-04T00:08:14.304Z,30.72
2019-04-04T00:11:17.930Z,30.86
2019-04-04T00:14:21.780Z,30.81
2019-04-04T00:17:25.535Z,30.90
2019-04-04T00:20:31.513Z,30.94
2019-04-04T00:23:37.610Z,30.87
2019-04-04T00:26:41.970Z,31.01
2019-04-04T00:29:46.050Z,31.05
2019-04-04T00:32:52.652Z,31.14
2019-04-04T00:35:56.230Z,31.17
2019-04-04T00:38:59.989Z,31.19
2019-04-04T00:42:03.714Z,31.27
2019-04-04T00:45:08.329Z,31.18
2019-04-04T00:48:12.164Z,31.32
2019-04-04T00:51:15.817Z,31.49
2019-04-04T00:54:19.446Z,31.53
2019-04-04T00:57:23.124Z,31.53
2019-04-04T01:00:26.884Z,31.59
2019-04-04T01:03:30.809Z,31.67
2019-04-04T01:06:34.574Z,31.65
2019-04-04T01:09:38.482Z,31.78
2019-04-04T01:12:42.118Z,31.80
2019-04-04T01:15:45.801Z,31.78
2019-04-04T01:18:49.443Z,31.93
2019-04-04T01:21:53.925Z,31.99
2019-04-04T01:24:59.061Z,32.11
2019-04-04T01:28:03.108Z,32.04
2019-04-04T01:31:06.776Z,32.11
2019-04-04T01:34:10.358Z,32.22
2019-04-04T01:37:14.070Z,32.22
2019-04-04T01:40:17.969Z,32.31
2019-04-04T01:43:21.747Z,32.48
2019-04-04T01:46:25.639Z,32.58
2019-04-04T01:49:29.378Z,32.66
2019-04-04T01:52:33.079Z,32.65
2019-04-04T01:55:37.164Z,32.81
2019-04-04T01:58:41.776Z,32.87
2019-04-04T02:01:46.883Z,33.00
2019-04-04T02:04:51.188Z,33.04
2019-04-04T02:07:54.826Z,33.24
2019-04-04T02:10:58.516Z,33.35
2019-04-04T02:14:02.286Z,33.40
2019-04-04T02:17:05.908Z,33.41
2019-04-04T02:20:09.539Z,33.49
2019-04-04T02:23:13.288Z,33.58
2019-04-04T02:26:17.014Z,33.74
2019-04-04T02:29:20.804Z,33.74
2019-04-04T02:32:27.526Z,34.36
2019-04-04T02:35:31.306Z,33.94
2019-04-04T02:38:35.283Z,34.01
2019-04-04T02:41:39.095Z,34.27
2019-04-04T02:44:42.779Z,34.53
2019-04-04T02:47:50.190Z,34.46
2019-04-04T02:50:51.775Z,34.68
2019-04-04T02:53:55.504Z,34.54
2019-04-04T02:56:59.160Z,34.83
2019-04-04T03:00:02.779Z,34.94
2019-04-04T03:03:09.170Z,35.08
2019-04-04T03:06:11.836Z,34.92
2019-04-04T03:09:15.644Z,35.14
2019-04-04T03:12:19.299Z,35.13
2019-04-04T03:15:23.038Z,35.05
2019-04-04T03:18:26.701Z,35.38
2019-04-04T03:21:30.319Z,35.44
2019-04-04T03:24:33.997Z,35.44
2019-04-04T03:27:37.776Z,35.29
2019-04-04T03:30:41.645Z,35.46
2019-04-04T03:33:45.286Z,35.02
2019-04-04T03:36:49.022Z,35.07
2019-04-04T03:39:53.369Z,34.87
2019-04-04T03:42:57.363Z,35.12
2019-04-04T03:46:01.735Z,34.90
2019-04-04T03:49:05.405Z,35.03
2019-04-04T03:52:11.312Z,34.91
2019-04-04T03:55:14.545Z,35.16
2019-04-04T03:58:18.514Z,35.27
2019-04-04T04:01:22.098Z,35.29
2019-04-04T04:04:28.129Z,35.27
2019-04-04T04:07:31.592Z,35.39
2019-04-04T04:10:35.288Z,35.39
2019-04-04T04:13:39.010Z,35.52
2019-04-04T04:16:42.617Z,35.47
2019-04-04T04:19:46.432Z,35.72
2019-04-04T04:22:50.926Z,35.65
2019-04-04T04:25:55.244Z,35.76
2019-04-04T04:28:58.886Z,35.58
2019-04-04T04:32:02.632Z,35.50
2019-04-04T04:35:08.552Z,35.60
2019-04-04T04:38:12.214Z,35.66
2019-04-04T04:41:19.897Z,35.58
2019-04-04T04:44:21.971Z,35.83
2019-04-04T04:47:25.774Z,35.58
2019-04-04T04:50:29.691Z,35.77
2019-04-04T04:53:33.494Z,36.13
2019-04-04T04:56:37.330Z,36.07
2019-04-04T04:59:44.359Z,36.12
2019-04-04T05:02:46.692Z,36.20
2019-04-04T05:05:50.316Z,36.20
2019-04-04T05:08:54.025Z,36.08
2019-04-04T05:11:57.648Z,36.17
2019-04-04T05:15:02.222Z,36.19
2019-04-04T05:18:06.142Z,36.19
2019-04-04T05:21:09.998Z,35.92
2019-04-04T05:24:13.598Z,35.85
2019-04-04T05:27:17.385Z,35.62
2019-04-04T05:30:21.076Z,35.71
2019-04-04T05:33:26.887Z,35.78
2019-04-04T05:36:30.087Z,35.40
2019-04-04T05:39:33.821Z,35.50
2019-04-04T05:42:37.516Z,35.32
2019-04-04T05:45:41.288Z,35.19
2019-04-04T05:48:44.878Z,35.17
2019-04-04T05:51:49.133Z,35.15
2019-04-04T05:54:52.936Z,34.67
2019-04-04T05:57:56.541Z,34.75
2019-04-04T06:01:01.866Z,34.53
2019-04-04T06:04:06.301Z,34.43
2019-04-04T06:07:10.201Z,34.27
2019-04-04T06:10:13.835Z,33.89
2019-04-04T06:13:17.445Z,33.10
2019-04-04T06:16:21.122Z,33.53
2019-04-04T06:19:24.812Z,33.42
2019-04-04T06:22:28.579Z,33.52
2019-04-04T06:25:35.662Z,32.72
2019-04-04T06:28:37.562Z,32.70
2019-04-04T06:31:41.261Z,33.06
2019-04-04T06:34:45.242Z,32.57
2019-04-04T06:37:51.030Z,33.01
2019-04-04T06:40:54.524Z,32.50
2019-04-04T06:43:58.196Z,32.07
2019-04-04T06:47:02.292Z,32.21
2019-04-04T06:50:08.109Z,32.55
2019-04-04T06:53:12.172Z,32.16
2019-04-04T06:56:15.848Z,32.34
2019-04-04T06:59:19.669Z,32.19
2019-04-04T07:02:24.010Z,32.42
2019-04-04T07:05:28.221Z,32.10
2019-04-04T07:08:31.836Z,32.32
2019-04-04T07:11:35.905Z,31.89
2019-04-04T07:14:45.696Z,31.75
2019-04-04T07:17:45.003Z,32.08
2019-04-04T07:20:48.980Z,31.75
2019-04-04T07:23:52.715Z,31.40
2019-04-04T07:26:56.336Z,31.51
2019-04-04T07:30:00.099Z,31.47
2019-04-04T07:33:03.780Z,31.28
2019-04-04T07:36:07.458Z,31.70
2019-04-04T07:39:12.401Z,30.92
2019-04-04T07:42:16.224Z,31.10
2019-04-04T07:45:20.056Z,31.18
2019-04-04T07:48:23.838Z,31.47
2019-04-04T07:51:28.059Z,31.07
2019-04-04T07:54:32.927Z,30.52
2019-04-04T07:57:36.507Z,29.96
2019-04-04T08:00:40.143Z,29.96
2019-04-04T08:03:43.802Z,29.98
2019-04-04T08:06:47.477Z,30.06
2019-04-04T08:09:51.164Z,29.79
2019-04-04T08:12:55.005Z,29.83
2019-04-04T08:15:58.660Z,30.03
2019-04-04T08:19:02.354Z,28.91
2019-04-04T08:22:06.101Z,28.82
2019-04-04T08:25:11.506Z,29.66
2019-04-04T08:28:15.236Z,28.96
2019-04-04T08:31:20.495Z,29.18
2019-04-04T08:34:24.184Z,28.65
2019-04-04T08:37:27.908Z,28.36
2019-04-04T08:40:31.538Z,28.52
2019-04-04T08:43:35.248Z,28.33
2019-04-04T08:46:38.921Z,28.63
2019-04-04T08:49:42.588Z,27.96
2019-04-04T08:52:47.165Z,28.46
2019-04-04T08:55:50.984Z,28.22
2019-04-04T08:58:54.702Z,28.29
2019-04-04T09:01:58.432Z,26.97
2019-04-04T09:05:11.860Z,27.78
2019-04-04T09:08:07.460Z,27.08
2019-04-04T09:11:11.138Z,27.76
2019-04-04T09:14:14.977Z,27.33
2019-04-04T09:17:18.638Z,27.55
2019-04-04T09:20:22.322Z,27.55
2019-04-04T09:23:26.096Z,27.58
2019-04-04T09:26:29.748Z,27.01
2019-04-04T09:29:33.364Z,26.83
2019-04-04T09:32:37.019Z,26.98
2019-04-04T09:35:40.639Z,26.68
2019-04-04T09:38:44.348Z,26.68
2019-04-04T09:41:47.965Z,26.74
2019-04-04T09:44:51.675Z,26.33
2019-04-04T09:47:55.617Z,26.13
2019-04-04T09:50:59.227Z,25.81
2019-04-04T09:54:02.990Z,26.31
2019-04-04T09:57:06.624Z,25.36
2019-04-04T10:00:12.694Z,25.68
2019-04-04T10:03:16.424Z,25.67
2019-04-04T10:06:20.550Z,25.66
2019-04-04T10:09:24.431Z,25.59
2019-04-04T10:12:29.699Z,25.49
2019-04-04T10:15:33.786Z,25.55
2019-04-04T10:18:37.644Z,25.35
2019-04-04T10:21:41.514Z,26.62
2019-04-04T10:24:45.372Z,26.62
2019-04-04T10:27:49.134Z,25.29
2019-04-04T10:30:52.930Z,25.29
2019-04-04T10:33:56.887Z,25.08
2019-04-04T10:37:00.636Z,24.96
2019-04-04T10:40:05.996Z,25.19
2019-04-04T10:43:09.888Z,25.53
2019-04-04T10:46:13.743Z,25.72
2019-04-04T10:49:17.457Z,25.10
2019-04-04T10:52:21.529Z,24.90
2019-04-04T10:55:25.569Z,25.23
2019-04-04T10:58:29.448Z,25.46
2019-04-04T11:01:33.299Z,25.68
2019-04-04T11:04:37.361Z,25.56
2019-04-04T11:07:41.022Z,25.56
2019-04-04T11:10:44.677Z,25.58
2019-04-04T11:13:48.547Z,25.90
2019-04-04T11:16:52.154Z,25.89
2019-04-04T11:19:56.124Z,25.38
2019-04-04T11:22:59.769Z,25.33
2019-04-04T11:26:03.556Z,26.02
2019-04-04T11:29:07.429Z,25.99
2019-04-04T11:32:11.177Z,26.68
2019-04-04T11:35:15.094Z,27.00
2019-04-04T11:38:19.083Z,27.06
2019-04-04T11:41:22.751Z,27.34
2019-04-04T11:44:26.574Z,27.73
2019-04-04T11:47:31.052Z,27.50
2019-04-04T11:50:34.798Z,27.78
2019-04-04T11:53:38.480Z,27.93
2019-04-04T11:56:42.401Z,27.92
2019-04-04T11:59:46.300Z,28.01
2019-04-04T12:02:50.376Z,27.84
2019-04-04T12:05:54.306Z,28.04
2019-04-04T12:08:58.122Z,28.06
2019-04-04T12:12:01.842Z,27.84
2019-04-04T12:15:08.379Z,28.26
2019-04-04T12:18:12.203Z,28.32
2019-04-04T12:21:15.931Z,27.99
2019-04-04T12:24:19.709Z,28.18
2019-04-04T12:27:23.535Z,28.44
2019-04-04T12:30:27.304Z,27.91
2019-04-04T12:33:31.106Z,28.22
2019-04-04T12:36:35.087Z,28.25
2019-04-04T12:39:38.675Z,28.42
2019-04-04T12:42:42.420Z,28.89
2019-04-04T12:45:46.121Z,28.94
2019-04-04T12:48:50.330Z,28.57
2019-04-04T12:51:53.988Z,28.75
2019-04-04T12:54:57.847Z,28.82
2019-04-04T12:58:01.714Z,28.83
2019-04-04T13:01:05.465Z,29.02
2019-04-04T13:04:09.145Z,29.15
2019-04-04T13:07:12.848Z,28.89
2019-04-04T13:10:16.476Z,29.28
2019-04-04T13:13:20.198Z,29.42
2019-04-04T13:16:24.215Z,28.94
2019-04-04T13:19:28.077Z,29.20
2019-04-04T13:22:31.679Z,29.31
2019-04-04T13:25:35.470Z,29.12
2019-04-04T13:28:39.179Z,29.29
2019-04-04T13:31:43.061Z,29.34
2019-04-04T13:34:58.765Z,29.35
2019-04-04T13:37:52.317Z,29.44
2019-04-04T13:40:56.102Z,29.58
2019-04-04T13:44:00.398Z,29.42
2019-04-04T13:47:04.111Z,29.60
2019-04-04T13:50:08.747Z,29.23
2019-04-04T13:53:12.377Z,29.47
2019-04-04T13:56:16.171Z,29.54
2019-04-04T13:59:19.890Z,29.18
2019-04-04T14:02:23.664Z,29.52
2019-04-04T14:05:27.862Z,29.47
2019-04-04T14:08:31.902Z,29.39
2019-04-04T14:11:35.711Z,29.53
2019-04-04T14:14:39.734Z,29.46
2019-04-04T14:17:44.099Z,29.47
2019-04-04T14:20:47.974Z,29.56
2019-04-04T14:23:53.030Z,29.48
2019-04-04T14:26:57.080Z,29.90
2019-04-04T14:30:00.763Z,29.61
2019-04-04T14:33:04.402Z,29.84
2019-04-04T14:36:08.101Z,29.71
2019-04-04T14:39:12.611Z,29.76
2019-04-04T14:42:16.683Z,29.75
2019-04-04T14:45:20.544Z,29.61
2019-04-04T14:48:24.693Z,29.69
2019-04-04T14:51:28.774Z,29.81
2019-04-04T14:54:32.442Z,29.79
2019-04-04T14:57:36.149Z,29.92
2019-04-04T15:00:40.327Z,29.84
2019-04-04T15:03:44.716Z,29.93
2019-04-04T15:06:51.176Z,29.82
2019-04-04T15:09:55.688Z,29.98
2019-04-04T15:12:59.617Z,29.84
2019-04-04T15:16:15.018Z,29.81
2019-04-04T15:19:19.245Z,29.97
2019-04-04T15:22:23.075Z,29.95
2019-04-04T15:25:26.871Z,30.10
2019-04-04T15:28:30.767Z,30.03
2019-04-04T15:31:34.490Z,30.01
2019-04-04T15:34:38.413Z,30.09
2019-04-04T15:37:42.435Z,30.23
2019-04-04T15:40:46.132Z,30.23
2019-04-04T15:43:51.512Z,30.17
2019-04-04T15:46:55.377Z,30.24
2019-04-04T15:49:59.194Z,30.13
2019-04-04T15:53:05.702Z,30.24
2019-04-04T15:56:09.884Z,30.16
2019-04-04T15:59:13.692Z,30.23
2019-04-04T16:02:17.642Z,30.32
2019-04-04T16:05:21.381Z,30.43
2019-04-04T16:08:25.213Z,30.63
2019-04-04T16:11:28.987Z,30.88
2019-04-04T16:14:32.772Z,30.78
2019-04-04T16:17:36.649Z,30.79
2019-04-04T16:20:40.665Z,31.04
2019-04-04T16:23:44.474Z,31.04
2019-04-04T16:26:48.281Z,30.94
2019-04-04T16:29:51.930Z,30.99
2019-04-04T16:32:55.796Z,31.10
2019-04-04T16:35:59.915Z,31.46
2019-04-04T16:39:05.368Z,31.70
2019-04-04T16:42:09.276Z,31.89
2019-04-04T16:45:13.158Z,31.79
2019-04-04T16:48:16.912Z,31.69
2019-04-04T16:51:20.583Z,31.93
2019-04-04T16:54:24.234Z,32.34
2019-04-04T16:57:28.336Z,32.19
2019-04-04T17:00:32.322Z,32.19
2019-04-04T17:03:36.174Z,32.39
2019-04-04T17:06:39.912Z,32.36
2019-04-04T17:09:43.566Z,32.65
2019-04-04T17:12:48.237Z,32.81
2019-04-04T17:15:52.013Z,32.77
2019-04-04T17:18:55.754Z,32.93
2019-04-04T17:21:59.661Z,33.34
2019-04-04T17:25:03.558Z,33.09
2019-04-04T17:28:07.787Z,33.19
2019-04-04T17:31:11.771Z,33.29
2019-04-04T17:34:15.799Z,33.19
2019-04-04T17:37:20.188Z,33.64
2019-04-04T17:40:23.973Z,33.67
2019-04-04T17:43:28.703Z,34.02
2019-04-04T17:46:32.749Z,34.05
2019-04-04T17:49:36.650Z,34.24
2019-04-04T17:52:40.317Z,34.54
2019-04-04T17:55:44.274Z,34.59
2019-04-04T17:58:48.530Z,34.67
2019-04-04T18:01:52.222Z,34.63
2019-04-04T18:04:56.140Z,34.70
2019-04-04T18:07:59.978Z,34.73
2019-04-04T18:11:04.793Z,35.01
2019-04-04T18:14:08.976Z,34.80
2019-04-04T18:17:13.064Z,35.28
2019-04-04T18:20:17.129Z,35.49
2019-04-04T18:23:21.520Z,35.37
2019-04-04T18:26:29.092Z,35.24
2019-04-04T18:29:33.004Z,35.42
2019-04-04T18:32:37.048Z,35.65
2019-04-04T18:35:40.910Z,35.70
2019-04-04T18:38:45.118Z,35.87
2019-04-04T18:41:49.100Z,35.65
2019-04-04T18:44:53.022Z,35.69
2019-04-04T18:47:57.734Z,35.81
2019-04-04T18:51:01.522Z,35.72
2019-04-04T18:54:05.361Z,36.33
2019-04-04T18:57:08.994Z,36.25
2019-04-04T19:00:12.860Z,36.11
2019-04-04T19:03:16.695Z,36.33
2019-04-04T19:06:20.454Z,37.09
2019-04-04T19:09:24.251Z,36.89
2019-04-04T19:12:28.053Z,36.84
2019-04-04T19:15:31.881Z,36.76
2019-04-04T19:18:35.660Z,36.77
2019-04-04T19:21:39.266Z,36.76
2019-04-04T19:24:43.158Z,36.69
2019-04-04T19:27:46.928Z,36.96
2019-04-04T19:30:50.682Z,37.24
2019-04-04T19:33:54.326Z,36.82
2019-04-04T19:36:57.991Z,36.80
2019-04-04T19:40:01.819Z,36.77
2019-04-04T19:43:17.596Z,36.78
2019-04-04T19:46:11.530Z,36.77
2019-04-04T19:49:15.321Z,36.75
2019-04-04T19:52:19.019Z,36.55
2019-04-04T19:55:23.203Z,36.66
2019-04-04T19:58:26.844Z,36.54
2019-04-04T20:01:30.472Z,36.57
2019-04-04T20:04:34.357Z,36.29
2019-04-04T20:07:38.369Z,36.22
2019-04-04T20:10:42.254Z,36.29
2019-04-04T20:13:45.914Z,36.40
2019-04-04T20:16:50.182Z,36.26
2019-04-04T20:19:54.353Z,36.32
2019-04-04T20:22:58.252Z,36.21
2019-04-04T20:26:02.273Z,36.31
2019-04-04T20:29:06.148Z,36.30
2019-04-04T20:32:09.947Z,36.24
2019-04-04T20:35:14.005Z,36.15
2019-04-04T20:38:17.655Z,36.16
2019-04-04T20:41:21.466Z,36.44
2019-04-04T20:44:25.229Z,36.30
2019-04-04T20:47:28.983Z,36.12
2019-04-04T20:50:32.598Z,36.24
2019-04-04T20:53:36.881Z,36.21
2019-04-04T20:56:40.522Z,36.23
2019-04-04T20:59:44.239Z,36.29
2019-04-04T21:02:47.822Z,36.30
2019-04-04T21:05:51.894Z,36.42
2019-04-04T21:08:55.671Z,36.50
2019-04-04T21:11:59.355Z,36.50
2019-04-04T21:15:03.143Z,36.53
2019-04-04T21:18:06.944Z,36.79
2019-04-04T21:21:10.790Z,36.86
2019-04-04T21:24:14.925Z,36.78
2019-04-04T21:27:19.127Z,36.75
2019-04-04T21:30:24.543Z,36.82
2019-04-04T21:33:28.177Z,36.77
2019-04-04T21:36:31.848Z,36.88
2019-04-04T21:39:35.538Z,36.90
2019-04-04T21:42:39.295Z,36.93
2019-04-04T21:45:43.030Z,36.95
2019-04-04T21:48:46.737Z,37.07
2019-04-04T21:51:50.383Z,37.14
2019-04-04T21:54:54.200Z,37.29
2019-04-04T21:57:58.182Z,37.27
2019-04-04T22:01:02.391Z,37.33
2019-04-04T22:04:06.204Z,37.48
2019-04-04T22:07:10.432Z,37.44
2019-04-04T22:10:14.231Z,37.50
2019-04-04T22:13:18.052Z,37.70
2019-04-04T22:16:21.696Z,37.49
2019-04-04T22:19:25.492Z,37.67
2019-04-04T22:22:30.428Z,37.80
2019-04-04T22:25:34.200Z,37.70
2019-04-04T22:28:38.064Z,37.80
2019-04-04T22:31:42.096Z,37.81
2019-04-04T22:34:45.938Z,37.92
2019-04-04T22:37:49.839Z,38.01
2019-04-04T22:40:53.692Z,38.13
2019-04-04T22:44:03.332Z,38.22
2019-04-04T22:47:03.115Z,38.38
2019-04-04T22:50:07.090Z,38.37
2019-04-04T22:53:10.862Z,38.36
2019-04-04T22:56:14.664Z,38.34
2019-04-04T22:59:18.354Z,38.30
2019-04-04T23:02:22.084Z,38.58
2019-04-04T23:05:25.712Z,38.44
2019-04-04T23:08:29.532Z,38.44
2019-04-04T23:11:33.202Z,38.54
2019-04-04T23:14:47.287Z,38.53
2019-04-04T23:17:45.305Z,38.61
2019-04-04T23:20:47.787Z,38.50
2019-04-04T23:23:51.412Z,38.70
2019-04-04T23:26:55.065Z,38.72
2019-04-04T23:29:58.724Z,38.76
2019-04-04T23:33:02.321Z,38.78
2019-04-04T23:36:06.017Z,38.94
2019-04-04T23:39:09.976Z,38.83
2019-04-04T23:42:13.698Z,38.98
2019-04-04T23:45:17.416Z,38.93
2019-04-04T23:48:21.114Z,38.96
2019-04-04T23:51:24.786Z,38.86
2019-04-04T23:54:28.413Z,38.85
2019-04-04T23:57:32.186Z,39.03
